Time;durP1;ratioP1;P1;durP2;ratioP2;P2;SDS_P1;SDS_P2;PMS_P1;PMS_P2;Temp;Humidity;BMP_temperature;BMP_pressure;BME280_temperature;BME280_humidity;BME280_pressure;Samples;Min_cycle;Max_cycle;Signal;HPM_P1;HPM_P2
2023/04/28 00:00:46;;;;;;;0.40;0.20;;;;;;;10.15;85.88;100355.63;4904667;29;20110;-93
2023/04/28 00:03:12;;;;;;;0.43;0.43;;;;;;;10.13;87.21;100360.81;4932587;29;20042;-93
2023/04/28 00:05:37;;;;;;;1.00;0.93;;;;;;;10.10;86.95;100350.59;4918779;29;20051;-93
2023/04/28 00:08:03;;;;;;;0.13;0.13;;;;;;;9.96;86.18;100342.53;4911060;29;20566;-93
2023/04/28 00:10:32;;;;;;;0.10;0.10;;;;;;;10.05;87.52;100362.16;4919370;28;20389;-93
2023/04/28 00:12:58;;;;;;;0.40;0.40;;;;;;;10.06;86.16;100369.28;4935780;29;20049;-93
2023/04/28 00:15:24;;;;;;;0.70;0.70;;;;;;;9.96;85.09;100359.16;4904161;29;20039;-93
2023/04/28 00:17:49;;;;;;;0.30;0.30;;;;;;;9.87;84.11;100350.63;4901950;29;20500;-93
2023/04/28 00:20:15;;;;;;;0.77;0.77;;;;;;;9.93;84.09;100354.47;4917902;29;20314;-93
2023/04/28 00:22:41;;;;;;;0.15;0.15;;;;;;;9.88;83.81;100356.94;4920722;29;20058;-93
2023/04/28 00:25:07;;;;;;;0.90;0.90;;;;;;;9.73;83.98;100337.03;4907050;29;20121;-92
2023/04/28 00:27:33;;;;;;;0.38;0.38;;;;;;;9.79;84.01;100344.44;4901403;29;20420;-93
2023/04/28 00:29:59;;;;;;;0.32;0.32;;;;;;;9.63;84.09;100332.47;4930933;29;20086;-94
2023/04/28 00:32:25;;;;;;;0.68;0.63;;;;;;;9.63;85.99;100340.78;4917521;29;20100;-92
2023/04/28 00:34:50;;;;;;;0.65;0.65;;;;;;;9.67;84.22;100360.88;4903459;29;20039;-93
2023/04/28 00:37:16;;;;;;;0.30;0.30;;;;;;;9.66;84.03;100370.41;4909203;28;20073;-94
2023/04/28 00:39:45;;;;;;;0.20;0.20;;;;;;;9.55;81.49;100372.56;4905543;29;20107;-93
2023/04/28 00:42:14;;;;;;;0.95;0.70;;;;;;;9.39;82.77;100353.84;4890360;29;20075;-93
2023/04/28 00:44:40;;;;;;;0.15;0.15;;;;;;;9.38;84.19;100353.06;4901045;29;20102;-93
2023/04/28 00:47:07;;;;;;;0.45;0.45;;;;;;;9.33;85.31;100339.72;4918990;29;20039;-93
2023/04/28 00:49:35;;;;;;;0.05;0.05;;;;;;;9.23;87.25;100329.59;4896491;29;20043;-93
2023/04/28 00:52:04;;;;;;;0.22;0.22;;;;;;;9.41;88.94;100361.75;4894851;29;20039;-95
2023/04/28 00:54:29;;;;;;;0.52;0.25;;;;;;;9.43;90.92;100359.31;4909776;29;20040;-93
2023/04/28 00:56:55;;;;;;;0.00;0.00;;;;;;;9.41;93.60;100351.47;4905706;29;20087;-93
2023/04/28 00:59:21;;;;;;;0.15;0.15;;;;;;;9.28;94.60;100340.19;4903453;29;20051;-93
2023/04/28 01:01:47;;;;;;;0.03;0.03;;;;;;;9.26;94.63;100344.59;4910243;29;20043;-93
2023/04/28 01:04:15;;;;;;;0.17;0.17;;;;;;;9.23;95.91;100345.41;4903818;29;20591;-93
2023/04/28 01:06:42;;;;;;;0.68;0.68;;;;;;;9.24;94.69;100356.09;4916845;29;20047;-93
2023/04/28 01:09:08;;;;;;;2.28;1.95;;;;;;;9.14;95.52;100340.41;4915292;29;20043;-93
2023/04/28 01:11:35;;;;;;;0.32;0.25;;;;;;;9.18;95.08;100348.69;4904999;29;20062;-93
2023/04/28 01:14:09;;;;;;;0.10;0.10;;;;;;;9.26;93.83;100367.50;4911246;29;20113;-94
2023/04/28 01:16:38;;;;;;;0.00;0.00;;;;;;;9.24;93.57;100358.84;4895890;29;20044;-93
2023/04/28 01:19:06;;;;;;;0.08;0.08;;;;;;;9.24;93.24;100352.53;4903481;29;20074;-93
2023/04/28 01:21:33;;;;;;;1.02;0.75;;;;;;;9.35;92.33;100359.44;4901778;29;20051;-93
2023/04/28 01:24:11;;;;;;;0.52;0.52;;;;;;;9.29;91.14;100355.63;4913994;29;20055;-94
2023/04/28 01:26:37;;;;;;;1.38;1.27;;;;;;;9.34;88.04;100357.88;4912429;29;20063;-93
2023/04/28 01:29:02;;;;;;;0.30;0.30;;;;;;;9.26;85.92;100345.34;4897882;29;20047;-94
2023/04/28 01:31:29;;;;;;;1.25;0.85;;;;;;;9.28;84.48;100359.56;4898325;29;20046;-93
2023/04/28 01:33:55;;;;;;;0.20;0.20;;;;;;;9.28;83.67;100356.03;4901601;29;20040;-94
2023/04/28 01:36:22;;;;;;;0.10;0.10;;;;;;;9.36;83.40;100360.25;4902532;29;20048;-93
2023/04/28 01:38:48;;;;;;;0.60;0.43;;;;;;;9.32;83.53;100349.22;4904353;29;21198;-93
2023/04/28 01:41:14;;;;;;;0.28;0.28;;;;;;;9.40;83.23;100355.44;4915557;29;20043;-93
2023/04/28 01:43:40;;;;;;;0.32;0.32;;;;;;;9.40;82.92;100352.66;4902089;29;20043;-94
2023/04/28 01:46:05;;;;;;;0.65;0.65;;;;;;;9.38;80.83;100348.75;4914333;29;20043;-94
2023/04/28 01:48:31;;;;;;;0.10;0.10;;;;;;;9.36;81.20;100344.41;4896073;29;20039;-93
2023/04/28 01:50:56;;;;;;;0.08;0.08;;;;;;;9.28;81.31;100331.91;4893424;29;20040;-94
2023/04/28 01:53:22;;;;;;;0.40;0.40;;;;;;;9.29;82.59;100333.47;4913929;29;20047;-93
2023/04/28 01:55:48;;;;;;;0.10;0.10;;;;;;;9.36;83.36;100338.88;4895852;29;20126;-93
2023/04/28 01:58:14;;;;;;;0.73;0.73;;;;;;;9.27;82.61;100335.84;4897162;29;20040;-93
2023/04/28 02:00:40;;;;;;;0.17;0.17;;;;;;;9.23;82.89;100329.59;4901609;29;20322;-92
2023/04/28 02:03:05;;;;;;;1.13;0.55;;;;;;;9.27;82.41;100335.84;4914922;29;20184;-93
2023/04/28 02:05:34;;;;;;;0.10;0.10;;;;;;;9.33;82.35;100356.34;4915581;29;20035;-92
2023/04/28 02:07:59;;;;;;;0.13;0.10;;;;;;;9.34;83.63;100352.34;4903026;29;20051;-93
2023/04/28 02:10:25;;;;;;;1.23;0.90;;;;;;;9.22;83.92;100333.56;4899969;29;20036;-93
2023/04/28 02:12:50;;;;;;;0.05;0.05;;;;;;;9.21;83.80;100331.22;4930077;29;20047;-94
2023/04/28 02:15:16;;;;;;;0.38;0.38;;;;;;;9.35;82.91;100353.13;4909484;29;20046;-92
2023/04/28 02:17:42;;;;;;;0.32;0.32;;;;;;;9.29;83.84;100343.75;4910683;29;20052;-93
2023/04/28 02:20:08;;;;;;;0.88;0.57;;;;;;;9.33;83.25;100348.03;4915890;29;20074;-93
2023/04/28 02:22:33;;;;;;;0.08;0.08;;;;;;;9.26;84.52;100334.28;4909717;29;20166;-94
2023/04/28 02:24:59;;;;;;;0.30;0.30;;;;;;;9.29;84.95;100350.06;4899289;29;20119;-93
2023/04/28 02:27:25;;;;;;;0.15;0.15;;;;;;;9.28;85.40;100356.03;4911758;29;20428;-93
2023/04/28 02:29:51;;;;;;;0.75;0.75;;;;;;;9.26;84.00;100350.91;4904875;29;20039;-94
2023/04/28 02:32:17;;;;;;;0.10;0.10;;;;;;;9.33;84.36;100361.88;4921053;29;20055;-93
2023/04/28 02:34:42;;;;;;;4.10;0.40;;;;;;;9.25;84.60;100351.34;4911088;29;20039;-93
2023/04/28 02:37:08;;;;;;;0.10;0.10;;;;;;;9.33;84.18;100361.88;4895324;29;20504;-93
2023/04/28 02:39:33;;;;;;;0.20;0.20;;;;;;;9.28;85.12;100354.03;4911425;29;20047;-93
2023/04/28 02:41:59;;;;;;;0.55;0.05;;;;;;;9.32;86.06;100354.75;4913805;29;20545;-93
2023/04/28 02:44:25;;;;;;;0.25;0.20;;;;;;;9.33;86.91;100352.78;4899969;29;20067;-93
2023/04/28 02:46:50;;;;;;;0.13;0.13;;;;;;;9.34;86.11;100352.34;4913067;29;20617;-94
2023/04/28 02:49:16;;;;;;;0.30;0.28;;;;;;;9.42;85.88;100355.00;4890933;29;20379;-93
2023/04/28 02:51:42;;;;;;;0.52;0.40;;;;;;;9.31;85.83;100347.66;4894511;29;20039;-93
2023/04/28 02:54:07;;;;;;;0.65;0.65;;;;;;;9.43;85.11;100357.34;4927490;29;20043;-93
2023/04/28 02:56:34;;;;;;;0.20;0.20;;;;;;;9.44;84.80;100356.16;4898469;29;20057;-93
2023/04/28 02:59:00;;;;;;;0.10;0.10;;;;;;;9.45;83.98;100356.94;4902861;29;20032;-93
2023/04/28 03:01:26;;;;;;;0.15;0.15;;;;;;;9.35;82.02;100347.59;4902250;29;20480;-93
2023/04/28 03:03:51;;;;;;;0.20;0.20;;;;;;;9.33;82.11;100345.25;4902532;29;20047;-92
2023/04/28 03:06:17;;;;;;;0.03;0.03;;;;;;;9.45;81.41;100356.94;4896315;29;20265;-92
2023/04/28 03:08:43;;;;;;;0.03;0.03;;;;;;;9.38;81.84;100340.44;4915953;29;20125;-92
2023/04/28 03:11:09;;;;;;;0.43;0.43;;;;;;;9.50;82.40;100353.69;4914323;29;20028;-93
2023/04/28 03:13:36;;;;;;;0.55;0.55;;;;;;;9.36;83.19;100344.41;4900477;29;20044;-93
2023/04/28 03:16:02;;;;;;;0.05;0.05;;;;;;;9.46;83.20;100364.03;4915184;29;20035;-92
2023/04/28 03:18:27;;;;;;;1.88;1.02;;;;;;;9.32;83.05;100332.63;4914291;29;20492;-92
2023/04/28 03:20:54;;;;;;;0.73;0.73;;;;;;;9.42;83.09;100352.25;4913360;29;20102;-93
2023/04/28 03:23:20;;;;;;;0.30;0.30;;;;;;;9.33;82.94;100344.47;4894868;29;20039;-93
2023/04/28 03:25:45;;;;;;;0.10;0.10;;;;;;;9.42;82.56;100355.00;4910533;29;20211;-93
2023/04/28 03:28:11;;;;;;;0.10;0.10;;;;;;;9.35;84.01;100342.06;4904306;29;20117;-92
2023/04/28 03:30:37;;;;;;;0.60;0.60;;;;;;;9.36;83.66;100351.94;4902393;29;20035;-93
2023/04/28 03:33:02;;;;;;;0.60;0.60;;;;;;;9.42;83.75;100352.25;4907087;29;20062;-93
2023/04/28 03:35:28;;;;;;;0.35;0.35;;;;;;;9.43;84.24;100362.88;4920611;29;20048;-92
2023/04/28 03:37:54;;;;;;;0.10;0.10;;;;;;;9.45;84.31;100360.50;4922688;29;20043;-93
2023/04/28 03:40:19;;;;;;;1.00;1.00;;;;;;;9.25;83.56;100341.03;4915157;29;20058;-93
2023/04/28 03:43:11;;;;;;;0.38;0.38;;;;;;;9.38;85.09;100370.91;4890562;29;20047;-92
2023/04/28 03:45:42;;;;;;;1.15;1.05;;;;;;;9.32;85.30;100365.84;4911739;29;20056;-92
2023/04/28 03:48:08;;;;;;;0.38;0.38;;;;;;;9.39;85.54;100370.47;4897946;29;20039;-93
2023/04/28 03:50:33;;;;;;;0.10;0.10;;;;;;;9.38;86.65;100369.69;4896914;29;20062;-93
2023/04/28 03:52:59;;;;;;;0.90;0.52;;;;;;;9.31;86.38;100350.44;4902568;29;20039;-93
2023/04/28 03:55:26;;;;;;;0.95;0.68;;;;;;;9.30;88.25;100339.78;4913838;29;20328;-94
2023/04/28 03:57:51;;;;;;;0.85;0.85;;;;;;;9.32;88.71;100343.69;4922878;29;20063;-95
2023/04/28 04:00:17;;;;;;;1.90;1.00;;;;;;;9.41;88.23;100356.22;4918900;29;20051;-93
2023/04/28 04:02:45;;;;;;;0.98;0.73;;;;;;;9.38;87.76;100347.53;4896840;29;20183;-94
2023/04/28 04:05:11;;;;;;;0.45;0.45;;;;;;;9.40;88.77;100349.88;4897887;29;20115;-94
2023/04/28 04:07:36;;;;;;;0.43;0.43;;;;;;;9.42;89.08;100343.94;4900193;28;20043;-92
2023/04/28 04:10:03;;;;;;;0.55;0.55;;;;;;;9.40;89.22;100341.59;4920168;28;20526;-92
2023/04/28 04:12:28;;;;;;;1.60;1.02;;;;;;;9.30;88.37;100318.41;4890441;29;20036;-93
2023/04/28 04:14:54;;;;;;;0.30;0.30;;;;;;;9.41;89.69;100347.91;4899397;29;20039;-94
2023/04/28 04:17:20;;;;;;;0.13;0.13;;;;;;;9.40;89.44;100346.34;4897836;29;20523;-93
2023/04/28 04:19:45;;;;;;;0.57;0.57;;;;;;;9.32;89.13;100321.53;4910982;28;20039;-92
2023/04/28 04:22:11;;;;;;;0.65;0.65;;;;;;;9.22;88.80;100318.97;4900671;28;20036;-93
2023/04/28 04:24:37;;;;;;;0.70;0.70;;;;;;;9.33;89.37;100331.41;4916764;29;20046;-93
2023/04/28 04:27:02;;;;;;;0.50;0.50;;;;;;;9.23;90.47;100315.75;4912866;29;20400;-93
2023/04/28 04:29:33;;;;;;;0.60;0.60;;;;;;;9.29;90.23;100330.69;4931402;28;20059;-93
2023/04/28 04:32:02;;;;;;;2.63;1.45;;;;;;;9.31;90.86;100333.81;4914299;28;20051;-93
2023/04/28 04:34:28;;;;;;;0.52;0.52;;;;;;;9.33;92.52;100339.72;4898287;29;20039;-92
2023/04/28 04:36:53;;;;;;;0.20;0.20;;;;;;;9.16;93.46;100324.19;4922881;28;20039;-92
2023/04/28 04:39:19;;;;;;;2.08;1.05;;;;;;;9.21;93.83;100326.47;4922040;28;20038;-94
2023/04/28 04:41:46;;;;;;;2.08;1.35;;;;;;;9.25;93.60;100332.75;4912899;28;20472;-93
2023/04/28 04:44:28;;;;;;;0.75;0.75;;;;;;;9.33;94.03;100322.34;4894922;28;20057;-92
2023/04/28 04:46:55;;;;;;;0.40;0.40;;;;;;;9.44;94.49;100345.06;4917875;29;20050;-93
2023/04/28 04:49:20;;;;;;;0.30;0.30;;;;;;;9.52;94.51;100340.97;4903871;29;20043;-94
2023/04/28 04:51:46;;;;;;;0.45;0.45;;;;;;;9.45;93.67;100318.97;4913084;29;20732;-94
2023/04/28 04:54:12;;;;;;;0.77;0.68;;;;;;;9.73;93.29;100342.59;4908762;29;20063;-95
2023/04/28 04:56:40;;;;;;;0.38;0.38;;;;;;;9.75;92.39;100331.84;4919929;29;20039;-94
2023/04/28 04:59:08;;;;;;;2.55;2.35;;;;;;;9.73;90.23;100325.97;4914519;29;20039;-95
2023/04/28 05:01:54;;;;;;;1.65;1.55;;;;;;;9.77;88.47;100335.78;4909423;29;20062;-94
2023/04/28 05:04:20;;;;;;;2.55;0.90;;;;;;;9.73;89.11;100339.81;4900947;28;20039;-94
2023/04/28 05:06:46;;;;;;;0.10;0.10;;;;;;;9.69;89.75;100333.56;4899801;29;20139;-92
2023/04/28 05:09:11;;;;;;;0.10;0.10;;;;;;;9.61;91.62;100316.28;4896945;28;20142;-93
2023/04/28 05:11:37;;;;;;;0.17;0.17;;;;;;;9.55;92.23;100317.19;4898297;29;20565;-92
2023/04/28 05:14:03;;;;;;;0.98;0.25;;;;;;;9.73;92.82;100334.28;4919531;29;20385;-91
2023/04/28 05:16:29;;;;;;;0.52;0.52;;;;;;;9.80;90.83;100334.13;4907188;29;20378;-92
2023/04/28 05:19:07;;;;;;;0.57;0.55;;;;;;;9.83;88.73;100328.53;4910752;29;20677;-92
2023/04/28 05:21:33;;;;;;;0.05;0.05;;;;;;;9.96;87.31;100337.00;4911687;28;20310;-92
2023/04/28 05:23:59;;;;;;;1.67;0.88;;;;;;;10.00;87.39;100339.69;4911091;29;20172;-92
2023/04/28 05:26:25;;;;;;;0.32;0.32;;;;;;;10.15;83.97;100332.72;4892858;28;20147;-91
2023/04/28 05:28:53;;;;;;;0.95;0.95;;;;;;;10.19;83.21;100323.09;4913646;29;20043;-94
2023/04/28 05:31:19;;;;;;;0.38;0.38;;;;;;;10.22;82.53;100316.72;4891946;28;20431;-93
2023/04/28 05:33:46;;;;;;;0.75;0.75;;;;;;;10.36;80.56;100331.47;4900381;29;20058;-92
2023/04/28 05:36:11;;;;;;;0.45;0.45;;;;;;;10.37;80.38;100321.94;4927137;29;20128;-92
2023/04/28 05:38:37;;;;;;;0.50;0.50;;;;;;;10.45;80.92;100323.34;4898283;29;20583;-93
2023/04/28 05:41:03;;;;;;;1.33;1.23;;;;;;;10.46;79.15;100341.56;4909455;29;20118;-93
2023/04/28 05:43:29;;;;;;;0.50;0.50;;;;;;;10.45;80.90;100329.69;4900295;29;20047;-92
2023/04/28 05:45:54;;;;;;;1.20;1.10;;;;;;;10.53;79.66;100335.84;4914774;29;20059;-94
2023/04/28 05:48:20;;;;;;;1.40;1.05;;;;;;;10.57;77.08;100344.88;4912580;29;20043;-93
2023/04/28 05:50:46;;;;;;;0.80;0.80;;;;;;;10.66;76.85;100345.09;4902975;29;20051;-95
2023/04/28 05:53:11;;;;;;;1.02;0.73;;;;;;;10.68;77.49;100362.06;4900193;29;20048;-94
2023/04/28 05:55:37;;;;;;;1.08;0.98;;;;;;;10.58;75.06;100349.22;4898593;29;20046;-94
2023/04/28 05:58:03;;;;;;;0.30;0.30;;;;;;;10.64;75.05;100348.28;4922511;29;20039;-94
2023/04/28 06:00:29;;;;;;;0.43;0.43;;;;;;;10.64;75.29;100358.59;4900395;29;20043;-95
2023/04/28 06:02:58;;;;;;;0.70;0.70;;;;;;;10.60;76.78;100350.34;4899424;29;20630;-94
2023/04/28 06:05:23;;;;;;;1.08;1.05;;;;;;;10.59;74.43;100353.56;4919252;29;20079;-92
2023/04/28 06:07:52;;;;;;;0.65;0.65;;;;;;;10.65;76.85;100352.63;4902662;29;20062;-93
2023/04/28 06:10:18;;;;;;;0.35;0.35;;;;;;;10.69;77.51;100355.31;4919265;29;20039;-94
2023/04/28 06:15:29;;;;;;;0.00;0.00;;;;;;;10.71;76.92;100352.91;4915947;29;20098;-92
2023/04/28 06:17:55;;;;;;;0.55;0.45;;;;;;;10.85;78.36;100357.34;4900623;29;20047;-93
2023/04/28 06:20:20;;;;;;;0.63;0.63;;;;;;;10.94;78.71;100338.88;4919567;29;20059;-93
2023/04/28 06:22:46;;;;;;;0.43;0.43;;;;;;;11.29;73.96;100336.44;4919001;29;20047;-94
2023/04/28 06:25:11;;;;;;;0.32;0.32;;;;;;;11.40;73.57;100342.53;4918207;29;20048;-93
2023/04/28 06:27:45;;;;;;;0.53;0.53;;;;;;;11.73;69.48;100346.09;4899878;29;20082;-93
2023/04/28 06:30:16;;;;;;;0.60;0.60;;;;;;;11.92;70.34;100326.50;4900536;29;20047;-93
2023/04/28 06:32:42;;;;;;;1.60;1.27;;;;;;;12.29;67.98;100341.75;4919948;29;20061;-93
2023/04/28 06:35:08;;;;;;;0.57;0.57;;;;;;;12.45;66.07;100355.56;4955065;29;20039;-93
2023/04/28 06:37:34;;;;;;;0.70;0.70;;;;;;;12.42;63.83;100350.09;4922371;29;20044;-94
2023/04/28 06:40:00;;;;;;;1.55;1.35;;;;;;;12.43;65.75;100352.44;4905970;29;20031;-94
2023/04/28 06:42:26;;;;;;;3.55;1.98;;;;;;;12.53;65.17;100356.16;4919147;29;20044;-93
2023/04/28 06:44:59;;;;;;;2.85;2.17;;;;;;;12.68;64.51;100343.34;4917698;23;20056;-89
2023/04/28 06:47:26;;;;;;;2.42;1.67;;;;;;;12.83;63.84;100352.03;4877742;29;20098;-89
2023/04/28 06:49:52;;;;;;;0.50;0.50;;;;;;;12.68;63.16;100362.06;4900071;29;20455;-91
2023/04/28 06:52:20;;;;;;;0.45;0.45;;;;;;;12.68;65.45;100351.72;4895553;29;20045;-91
2023/04/28 06:54:46;;;;;;;0.75;0.75;;;;;;;12.56;65.21;100319.09;4885039;29;20108;-90
2023/04/28 06:57:11;;;;;;;1.17;1.08;;;;;;;12.61;66.76;100336.00;4890132;29;20060;-89
2023/04/28 06:59:37;;;;;;;1.52;0.98;;;;;;;12.59;66.55;100346.00;4913271;29;20123;-91
2023/04/28 07:02:02;;;;;;;1.05;0.95;;;;;;;12.63;68.06;100332.78;4878546;29;20051;-88
2023/04/28 07:04:28;;;;;;;0.45;0.45;;;;;;;12.53;67.33;100333.88;4884991;29;20033;-92
2023/04/28 07:06:53;;;;;;;6.78;2.85;;;;;;;12.29;67.23;100327.06;4845959;29;20045;-92
2023/04/28 07:09:19;;;;;;;1.80;1.63;;;;;;;12.34;67.90;100323.69;4890973;29;20585;-92
2023/04/28 07:11:45;;;;;;;2.10;1.85;;;;;;;12.23;68.27;100321.25;4897340;29;20586;-93
2023/04/28 07:14:10;;;;;;;1.13;1.02;;;;;;;12.41;69.01;100326.31;4890060;29;20522;-92
2023/04/28 07:16:36;;;;;;;0.68;0.68;;;;;;;12.57;68.20;100317.88;4865407;29;20037;-93
2023/04/28 07:19:01;;;;;;;3.38;2.50;;;;;;;12.82;64.52;100323.41;4849108;29;20101;-93
2023/04/28 07:21:27;;;;;;;3.17;2.50;;;;;;;12.77;63.48;100321.22;4895617;29;20586;-92
2023/04/28 07:23:55;;;;;;;1.63;1.52;;;;;;;12.75;64.37;100304.16;4876717;29;20376;-93
2023/04/28 07:26:24;;;;;;;3.17;2.78;;;;;;;12.68;64.83;100301.63;4874683;29;20044;-93
2023/04/28 07:28:50;;;;;;;10.45;2.38;;;;;;;12.83;62.65;100308.28;4877178;29;20519;-92
2023/04/28 07:31:16;;;;;;;1.00;0.93;;;;;;;12.87;62.64;100292.25;4861986;29;20049;-93
2023/04/28 07:33:42;;;;;;;2.33;1.02;;;;;;;13.17;63.51;100315.19;4860763;29;20456;-93
2023/04/28 07:36:07;;;;;;;2.75;2.15;;;;;;;13.41;60.74;100292.09;4875936;29;20036;-93
2023/04/28 07:38:34;;;;;;;2.67;2.47;;;;;;;13.85;59.13;100298.50;4877646;29;20534;-93
2023/04/28 07:41:02;;;;;;;1.05;0.85;;;;;;;14.14;57.96;100281.50;4875247;29;20052;-92
2023/04/28 07:43:28;;;;;;;2.40;1.05;;;;;;;14.70;55.50;100292.53;4882975;29;20131;-94
2023/04/28 07:45:53;;;;;;;1.02;0.95;;;;;;;14.69;52.29;100274.22;4851921;29;20143;-94
2023/04/28 07:48:19;;;;;;;4.32;1.65;;;;;;;14.69;51.99;100299.34;4866716;29;20367;-92
2023/04/28 07:50:44;;;;;;;0.40;0.40;;;;;;;14.82;53.11;100296.44;4872888;29;20385;-93
2023/04/28 07:53:10;;;;;;;0.80;0.80;;;;;;;14.98;51.92;100284.22;4879725;29;20449;-92
2023/04/28 07:55:36;;;;;;;0.40;0.40;;;;;;;15.17;52.04;100278.22;4877182;29;20048;-94
2023/04/28 07:58:01;;;;;;;0.65;0.47;;;;;;;15.23;52.23;100279.19;4877256;29;20049;-93
2023/04/28 08:00:27;;;;;;;0.30;0.30;;;;;;;15.51;51.78;100268.84;4851877;29;20064;-93
2023/04/28 08:02:52;;;;;;;1.23;1.10;;;;;;;15.73;50.23;100257.50;4889134;29;20036;-93
2023/04/28 08:05:18;;;;;;;0.73;0.70;;;;;;;15.95;49.31;100274.88;4872201;29;20411;-93
2023/04/28 08:07:44;;;;;;;0.38;0.30;;;;;;;15.85;51.33;100265.72;4877056;29;20412;-93
2023/04/28 08:10:10;;;;;;;2.85;1.70;;;;;;;16.03;50.02;100269.75;4850509;29;20037;-89
2023/04/28 08:12:36;;;;;;;6.18;1.35;;;;;;;16.23;50.34;100253.22;4864403;29;20101;-89
2023/04/28 08:15:02;;;;;;;1.92;1.30;;;;;;;16.74;47.92;100251.19;4862406;29;20966;-89
2023/04/28 08:17:28;;;;;;;3.42;1.45;;;;;;;17.08;44.89;100251.94;4876875;29;20039;-89
2023/04/28 08:19:53;;;;;;;2.55;1.45;;;;;;;16.87;44.67;100261.41;4862459;29;20415;-90
2023/04/28 08:22:19;;;;;;;7.60;1.42;;;;;;;16.81;45.38;100266.09;4878689;29;20045;-89
2023/04/28 08:24:45;;;;;;;0.68;0.68;;;;;;;16.92;44.90;100233.50;4861885;29;20484;-90
2023/04/28 08:27:11;;;;;;;1.73;1.23;;;;;;;17.56;43.83;100264.69;4874020;29;20093;-89
2023/04/28 08:29:36;;;;;;;0.95;0.63;;;;;;;17.48;42.56;100255.09;4862843;29;20052;-90
2023/04/28 08:32:03;;;;;;;5.10;1.52;;;;;;;17.66;42.72;100232.53;4862721;29;20048;-90
2023/04/28 08:34:29;;;;;;;0.50;0.50;;;;;;;17.84;40.64;100264.47;4877760;29;20053;-90
2023/04/28 08:36:54;;;;;;;1.55;0.75;;;;;;;17.85;41.01;100230.34;4868172;29;20029;-90
2023/04/28 08:39:22;;;;;;;0.15;0.15;;;;;;;17.57;39.72;100235.41;4859688;29;20124;-90
2023/04/28 08:41:48;;;;;;;0.50;0.50;;;;;;;18.08;40.03;100253.94;4860083;29;20048;-89
2023/04/28 08:44:13;;;;;;;1.38;1.13;;;;;;;18.36;39.14;100272.06;4843845;29;20423;-89
2023/04/28 08:46:43;;;;;;;0.40;0.40;;;;;;;18.39;35.67;100243.03;4868512;29;20103;-89
2023/04/28 08:49:15;;;;;;;0.80;0.80;;;;;;;18.04;36.29;100240.13;4863438;29;20052;-89
2023/04/28 08:51:46;;;;;;;0.10;0.10;;;;;;;18.04;36.41;100240.13;4847180;29;20045;-89
2023/04/28 08:54:15;;;;;;;0.20;0.20;;;;;;;18.29;35.86;100247.19;4875831;29;20312;-88
2023/04/28 08:56:44;;;;;;;0.40;0.40;;;;;;;18.02;36.00;100234.22;4875427;29;20044;-88
2023/04/28 08:59:10;;;;;;;0.55;0.40;;;;;;;17.82;36.23;100233.34;4863960;29;20059;-88
2023/04/28 09:01:35;;;;;;;0.17;0.17;;;;;;;17.80;37.47;100230.22;4868365;29;20063;-88
2023/04/28 09:04:01;;;;;;;0.50;0.50;;;;;;;17.78;37.83;100218.72;4860267;29;20832;-88
2023/04/28 09:06:37;;;;;;;0.25;0.25;;;;;;;18.26;36.02;100241.75;4868068;29;20067;-91
2023/04/28 09:09:21;;;;;;;1.08;0.32;;;;;;;18.28;35.21;100228.78;4875318;29;20041;-88
2023/04/28 09:11:54;;;;;;;0.60;0.47;;;;;;;18.52;35.83;100231.50;4876671;29;20148;-88
2023/04/28 09:14:21;;;;;;;0.77;0.77;;;;;;;18.52;34.92;100226.66;4871600;29;20056;-88
2023/04/28 09:16:47;;;;;;;0.40;0.40;;;;;;;18.22;35.83;100230.72;4862113;29;20044;-88
2023/04/28 09:19:14;;;;;;;0.10;0.10;;;;;;;18.51;35.81;100221.50;4871746;29;20052;-88
2023/04/28 09:21:54;;;;;;;0.30;0.30;;;;;;;18.53;35.57;100222.59;4837836;29;20041;-88
2023/04/28 09:24:29;;;;;;;0.28;0.28;;;;;;;18.30;36.18;100229.09;4849930;29;20663;-88
2023/04/28 09:26:55;;;;;;;0.35;0.35;;;;;;;17.79;35.69;100225.88;4893146;29;20160;-88
2023/04/28 09:29:20;;;;;;;1.98;1.10;;;;;;;17.42;36.37;100226.16;4858037;29;20078;-88
2023/04/28 09:31:46;;;;;;;0.85;0.25;;;;;;;17.09;36.71;100203.84;4872713;29;20055;-88
2023/04/28 09:34:12;;;;;;;0.75;0.75;;;;;;;17.38;37.69;100219.97;4876316;29;20511;-88
2023/04/28 09:36:37;;;;;;;0.32;0.28;;;;;;;17.75;38.42;100208.47;4878092;29;20052;-88
2023/04/28 09:39:03;;;;;;;0.57;0.57;;;;;;;18.35;38.04;100211.56;4859179;29;20045;-92
2023/04/28 09:41:39;;;;;;;0.43;0.43;;;;;;;18.37;36.23;100209.03;4874164;29;20064;-92
2023/04/28 09:44:20;;;;;;;0.60;0.60;;;;;;;17.98;36.61;100202.00;4858767;29;20057;-94
2023/04/28 09:46:46;;;;;;;0.55;0.55;;;;;;;17.83;37.35;100204.03;4845275;29;20431;-93
2023/04/28 09:49:12;;;;;;;0.38;0.35;;;;;;;17.59;37.07;100195.69;4868819;29;20080;-92
2023/04/28 09:51:38;;;;;;;0.22;0.22;;;;;;;17.80;38.73;100202.16;4862354;29;20165;-92
2023/04/28 09:54:04;;;;;;;0.22;0.22;;;;;;;18.20;39.00;100204.41;4862284;29;20228;-93
2023/04/28 09:56:32;;;;;;;0.57;0.57;;;;;;;18.78;36.85;100203.53;4868627;29;20051;-93
2023/04/28 09:58:59;;;;;;;0.75;0.47;;;;;;;18.98;35.60;100200.75;4867001;29;20450;-93
2023/04/28 10:01:26;;;;;;;0.03;0.03;;;;;;;18.79;35.85;100196.66;4850029;29;20044;-93
2023/04/28 10:03:52;;;;;;;0.88;0.70;;;;;;;19.05;36.27;100195.47;4874477;29;20337;-93
2023/04/28 10:06:19;;;;;;;0.10;0.10;;;;;;;19.36;35.33;100199.69;4876221;29;20045;-94
2023/04/28 10:08:47;;;;;;;0.77;0.55;;;;;;;19.81;34.39;100190.50;4886604;29;20495;-93
2023/04/28 10:11:15;;;;;;;0.60;0.52;;;;;;;19.17;34.84;100184.38;4867698;29;20526;-92
2023/04/28 10:13:42;;;;;;;1.40;1.23;;;;;;;19.10;35.54;100186.34;4876372;29;20112;-94
2023/04/28 10:16:09;;;;;;;0.40;0.40;;;;;;;18.68;35.66;100182.47;4872841;29;20124;-92
2023/04/28 10:18:35;;;;;;;0.00;0.00;;;;;;;18.46;36.32;100189.25;4856470;29;20059;-94
2023/04/28 10:21:02;;;;;;;0.90;0.75;;;;;;;18.73;36.46;100174.09;4886158;29;20048;-95
2023/04/28 10:23:47;;;;;;;0.60;0.60;;;;;;;18.81;36.20;100174.44;4888477;29;20044;-95
2023/04/28 10:26:13;;;;;;;0.35;0.30;;;;;;;18.87;36.32;100164.06;4886212;29;20048;-92
2023/04/28 10:28:50;;;;;;;4.30;0.75;;;;;;;18.94;36.27;100161.59;4874153;29;20052;-94
2023/04/28 10:31:22;;;;;;;0.13;0.13;;;;;;;19.00;36.38;100158.88;4878828;29;20052;-94
2023/04/28 10:33:48;;;;;;;0.28;0.28;;;;;;;18.47;36.80;100140.25;4876641;29;20507;-94
2023/04/28 10:36:51;;;;;;;0.82;0.60;;;;;;;18.42;37.52;100142.97;4869878;29;20049;-94
2023/04/28 10:39:16;;;;;;;0.30;0.30;;;;;;;18.20;37.83;100118.13;4869892;29;20053;-94
2023/04/28 10:41:45;;;;;;;2.42;1.00;;;;;;;18.26;37.94;100124.63;4897538;29;20056;-93
2023/04/28 10:44:28;;;;;;;0.20;0.20;;;;;;;18.19;38.31;100125.03;4873502;29;20087;-94
2023/04/28 10:47:06;;;;;;;1.17;0.90;;;;;;;17.99;38.64;100113.72;4895822;29;20056;-92
2023/04/28 10:49:53;;;;;;;0.35;0.35;;;;;;;18.24;39.18;100115.88;4859980;29;20620;-94
2023/04/28 10:52:45;;;;;;;0.30;0.30;;;;;;;18.28;38.35;100110.84;4900637;29;20097;-93
2023/04/28 10:55:35;;;;;;;0.55;0.55;;;;;;;18.03;38.29;100101.06;4886365;29;20040;-92
2023/04/28 10:58:16;;;;;;;0.47;0.20;;;;;;;17.96;39.13;100101.44;4873143;29;20040;-94
2023/04/28 11:00:44;;;;;;;0.35;0.28;;;;;;;18.07;39.35;100090.41;4879945;29;20507;-93
2023/04/28 11:03:37;;;;;;;1.13;0.73;;;;;;;18.21;38.72;100100.03;4859553;29;20037;-92
2023/04/28 11:06:26;;;;;;;;;;;;;;;18.33;38.99;100084.88;4865766;29;20080;-95
2023/04/28 11:08:54;;;;;;;0.77;0.77;;;;;;;18.27;39.19;100086.84;4861738;29;19927;-92
2023/04/28 11:11:21;;;;;;;0.30;0.30;;;;;;;18.42;39.28;100093.19;4871998;29;20080;-93
2023/04/28 11:13:48;;;;;;;1.20;0.43;;;;;;;18.66;39.38;100098.66;4843719;29;20495;-95
2023/04/28 11:16:16;;;;;;;0.40;0.40;;;;;;;18.79;38.42;100092.69;4871070;29;20040;-93
2023/04/28 11:18:41;;;;;;;1.25;0.75;;;;;;;18.76;38.26;100093.66;4877403;29;20051;-94
2023/04/28 11:21:07;;;;;;;0.40;0.40;;;;;;;18.53;38.19;100059.66;4876612;29;20053;-94
2023/04/28 11:23:33;;;;;;;1.25;0.35;;;;;;;18.78;38.00;100079.88;4891545;29;20103;-94
2023/04/28 11:25:58;;;;;;;0.40;0.40;;;;;;;18.83;38.54;100065.13;4871185;29;20037;-94
2023/04/28 11:28:24;;;;;;;0.25;0.25;;;;;;;18.90;38.51;100070.31;4891481;29;20104;-92
2023/04/28 11:30:50;;;;;;;1.48;0.95;;;;;;;19.24;37.55;100060.22;4861788;29;20052;-94
2023/04/28 11:33:16;;;;;;;0.70;0.60;;;;;;;19.15;37.11;100049.91;4846769;29;20033;-94